WetterOnline ( http://www.wetteronline.ch )

Wetter aktuell Hannover

Aktuelles Wetter: Alfeld (148m)

6-stündlich | Neueste Meldungen
Ortszeit Temperatur Wetter
Sa, 24.02. 13:00 -0.8° C bewölkt
Sa, 24.02. 7:00 -5.1° C wolkenlos
Sa, 24.02. 1:00 -3.8° C wolkenlos
Fr, 23.02. 19:00 -1.3° C wolkig
Fr, 23.02. 13:00 -0.1° C bewölkt
Fr, 23.02. 7:00 -2.0° C bedeckt
Fr, 23.02. 1:00 -0.4° C bedeckt
Do, 22.02. 19:00 0.6° C bedeckt
Ortszeit Temperatur Wetter
Sa, 24.02. 15:00 0.4° C wolkig
Sa, 24.02. 14:40 0.8° C wolkig
Sa, 24.02. 14:30 0.2° C bewölkt
Sa, 24.02. 14:20 0.2° C bewölkt
Sa, 24.02. 14:10 0.5° C wolkig
Sa, 24.02. 14:00 0.3° C leicht bewölkt
Sa, 24.02. 13:50 0.3° C leicht bewölkt
Sa, 24.02. 13:30 0.3° C wolkig
Sa, 24.02. 13:00 -0.8° C bewölkt
Sa, 24.02. 12:30 -1.3° C bewölkt
Sa, 24.02. 12:00 -1.7° C bedeckt
Ortszeit Relative Feuchte Sichtweite
Sa, 24.02. 13:00 63% 29 km
Sa, 24.02. 7:00 66% 15 km
Sa, 24.02. 1:00 60% 12 km
Fr, 23.02. 19:00 46% 22 km
Fr, 23.02. 13:00 58% 16 km
Fr, 23.02. 7:00 68% 22 km
Fr, 23.02. 1:00 77% 10 km
Do, 22.02. 19:00 70% 17 km
Ortszeit Relative Feuchte Sichtweite
Sa, 24.02. 15:00 44% 30 km
Sa, 24.02. 14:40 42% -
Sa, 24.02. 14:30 44% 26 km
Sa, 24.02. 14:20 44% -
Sa, 24.02. 14:10 47% -
Sa, 24.02. 14:00 44% 22 km
Sa, 24.02. 13:50 44% -
Sa, 24.02. 13:30 50% 15 km
Sa, 24.02. 13:00 63% 29 km
Sa, 24.02. 12:30 70% 20 km
Sa, 24.02. 12:00 70% 23 km
Ortszeit Niederschlagsmenge Niederschlagsart
Sa, 24.02. 13:00 0.1 l/m2 in 6 Std. Schnee, Regen
Sa, 24.02. 7:00 0.0 l/m2 in 12 Std. -
Sa, 24.02. 1:00 0.0 l/m2 in 6 Std. -
Fr, 23.02. 19:00 0.0 l/m2 in 12 Std. -
Fr, 23.02. 13:00 0.0 l/m2 in 6 Std. -
Fr, 23.02. 7:00 0.0 l/m2 in 12 Std. -
Fr, 23.02. 1:00 0.0 l/m2 in 6 Std. -
Do, 22.02. 19:00 0.1 l/m2 in 12 Std. Schnee
Ortszeit Niederschlagsmenge Niederschlagsart
Sa, 24.02. 15:00 0.0 l/m2 in 1 Std. -
Sa, 24.02. 14:40 keine Meldung -
Sa, 24.02. 14:30 0.0 l/m2 in 1 Std. -
Sa, 24.02. 14:20 keine Meldung -
Sa, 24.02. 14:10 keine Meldung -
Sa, 24.02. 14:00 0.0 l/m2 in 1 Std. -
Sa, 24.02. 13:50 keine Meldung -
Sa, 24.02. 13:30 0.0 l/m2 in 1 Std. -
Sa, 24.02. 13:00 0.1 l/m2 in 1 Std. Schnee, Regen
Sa, 24.02. 12:30 0.0 l/m2 in 1 Std. -
Sa, 24.02. 12:00 0.1 l/m2 in 1 Std. Schnee, Regen
Ortszeit Stärke Spitze Richtung
km/h Bft. km/h Grad Sektor
Sa, 24.02. 13:00 13 3 33 80° O
Sa, 24.02. 7:00 9 2 22 130° SO
Sa, 24.02. 1:00 11 2 28 110° O
Fr, 23.02. 19:00 11 2 36 90° O
Fr, 23.02. 13:00 14 3 40 60° NO
Fr, 23.02. 7:00 0 0 22 - -
Fr, 23.02. 1:00 7 2 19 100° O
Do, 22.02. 19:00 6 1 26 20° N
Ortszeit Stärke Spitze Richtung
km/h Bft. km/h Grad Sektor
Sa, 24.02. 15:00 17 3 50 60° NO
Sa, 24.02. 14:40 13 3 - 90° O
Sa, 24.02. 14:30 13 3 50 40° NO
Sa, 24.02. 14:20 13 3 - 40° NO
Sa, 24.02. 14:10 13 3 - 70° O
Sa, 24.02. 14:00 18 3 47 100° O
Sa, 24.02. 13:50 18 3 - 100° O
Sa, 24.02. 13:30 18 3 40 90° O
Sa, 24.02. 13:00 13 3 33 80° O
Sa, 24.02. 12:30 14 3 25 100° O
Sa, 24.02. 12:00 13 3 33 80° O
Ortszeit Untergrenze Bedeckung Gattung
total tief tief mittel hoch
Sa, 24.02. 13:00 750 m 7/8 7/8 - - -
Sa, 24.02. 7:00 - 0/8 0/8 - - -
Sa, 24.02. 1:00 - 0/8 0/8 - - -
Fr, 23.02. 19:00 6300 m 6/8 6/8 - - -
Fr, 23.02. 13:00 990 m 7/8 7/8 - - -
Fr, 23.02. 7:00 1140 m 8/8 8/8 - - -
Fr, 23.02. 1:00 510 m 8/8 8/8 - - -
Do, 22.02. 19:00 990 m 8/8 8/8 - - -
Ortszeit Bedeckungsgrad in Achtel und Wolkenuntergrenze
Sa, 24.02. 15:00 2(1470m) 7(4500m) 7(5400m)
Sa, 24.02. 14:40 1(1410m) 6(5100m) 7(5700m)
Sa, 24.02. 14:30 2(4200m) 5(5100m) 7(5700m)
Sa, 24.02. 14:20 2(4200m) 5(5100m) 7(5700m)
Sa, 24.02. 14:10 2(4200m) 6(4800m) 6(5700m)
Sa, 24.02. 14:00 1(1230m) 6(4800m) 6(5700m)
Sa, 24.02. 13:50 1(1230m) 6(4800m) 6(5700m)
Sa, 24.02. 13:30 5(1020m) 7(4500m) 6(4500m)
Sa, 24.02. 13:00 1(750m) 7(1200m) 7(5100m)
Sa, 24.02. 12:30 5(630m) 6(840m) 7(1020m)
Sa, 24.02. 12:00 5(630m) 5(840m) 8(1110m)
Ortszeit Luftdruck NN (hPa) Tendenz (hPa in 3 Std.)
Sa, 24.02. 13:00 1029 + 0,1
Sa, 24.02. 7:00 1029 + 1,1
Sa, 24.02. 1:00 1027 + 0,5
Fr, 23.02. 19:00 1026 + 0,4
Fr, 23.02. 13:00 1026 - 0,3
Fr, 23.02. 7:00 1025 + 0,4
Fr, 23.02. 1:00 1025 - 0,4
Do, 22.02. 19:00 1025 - 0,4
Ortszeit Luftdruck NN (hPa) Tendenz (hPa in 3 Std.)
Sa, 24.02. 15:00 1029 - 0,7
Sa, 24.02. 14:40 1029 keine Meldung
Sa, 24.02. 14:30 1029 - 0,7
Sa, 24.02. 14:20 1029 keine Meldung
Sa, 24.02. 14:10 1029 keine Meldung
Sa, 24.02. 14:00 1029 - 0,7
Sa, 24.02. 13:50 1029 keine Meldung
Sa, 24.02. 13:30 1029 - 0,1
Sa, 24.02. 13:00 1029 + 0,1
Sa, 24.02. 12:30 1030 + 0,5
Sa, 24.02. 12:00 1030 + 0,9
Ortszeit Schneehöhe (cm)
Sa, 24.02. 13:00 0
Sa, 24.02. 7:00 0
Sa, 24.02. 1:00 0
Fr, 23.02. 19:00 0
Fr, 23.02. 13:00 0
Fr, 23.02. 7:00 0
Fr, 23.02. 1:00 0
Do, 22.02. 19:00 0
Ortszeit Schneehöhe (cm)
Sa, 24.02. 15:00 0
Sa, 24.02. 14:40 0
Sa, 24.02. 14:30 0
Sa, 24.02. 14:20 0
Sa, 24.02. 14:10 0
Sa, 24.02. 14:00 0
Sa, 24.02. 13:50 0
Sa, 24.02. 13:30 0
Sa, 24.02. 13:00 0
Sa, 24.02. 12:30 0
Sa, 24.02. 12:00 0
Link zu dieser Seite / Seite empfehlen

Das Wetter in ...